Home > Products > Valid Products > TAF

000
FTUS45 KLKN 021729
TAFTPH
TAF
KTPH 021729Z 0218/0318 VRB06KT P6SM SCT120 BKN150
     FM022000 VRB06G16KT P6SM VCTS BKN100CB
     FM030600 01010KT P6SM SCT100=



000
FTUS45 KLKN 021729
TAFEKO
TAF
KEKO 021729Z 0218/0318 VRB05KT P6SM FEW120 SCT200
     FM022000 09007KT P6SM VCTS SCT110CB SCT150
     FM030300 06006KT P6SM BKN110
     FM031200 VRB03KT P6SM SCT110=



000
FTUS45 KLKN 021729
TAFELY
TAF
KELY 021729Z 0218/0318 VRB05KT P6SM SCT110 BKN150
     FM022000 35008KT P6SM VCTS BKN090CB
     FM030600 18008KT P6SM BKN090=



000
FTUS45 KLKN 021729
TAFWMC
TAF
KWMC 021729Z 0218/0318 VRB03KT P6SM FEW120 SCT200
     FM022000 31008KT P6SM VCTS BKN120CB
     FM030400 15007KT P6SM BKN120=



000
FTUS45 KLKN 021729
TAFTPH
TAF
KTPH 021729Z 0218/0318 VRB06KT P6SM SCT120 BKN150
     FM022000 VRB06G16KT P6SM VCTS BKN100CB
     FM030600 01010KT P6SM SCT100=



000
FTUS45 KLKN 021729
TAFEKO
TAF
KEKO 021729Z 0218/0318 VRB05KT P6SM FEW120 SCT200
     FM022000 09007KT P6SM VCTS SCT110CB SCT150
     FM030300 06006KT P6SM BKN110
     FM031200 VRB03KT P6SM SCT110=



000
FTUS45 KLKN 021729
TAFWMC
TAF
KWMC 021729Z 0218/0318 VRB03KT P6SM FEW120 SCT200
     FM022000 31008KT P6SM VCTS BKN120CB
     FM030400 15007KT P6SM BKN120=



000
FTUS45 KLKN 021729
TAFELY
TAF
KELY 021729Z 0218/0318 VRB05KT P6SM SCT110 BKN150
     FM022000 35008KT P6SM VCTS BKN090CB
     FM030600 18008KT P6SM BKN090=



000
FTUS45 KLKN 021120
TAFEKO
TAF
KEKO 021120Z 0212/0312 VRB05KT P6SM FEW120 SCT250
     FM021900 09007KT P6SM VCTS SCT100CB SCT250
     FM030300 07006KT P6SM SCT120 SCT250=



000
FTUS45 KLKN 021120
TAFTPH
TAF
KTPH 021120Z 0212/0312 36010KT P6SM FEW100 OVC150
     FM021300 36008KT P6SM SCT200
     FM021900 18010G20KT P6SM VCTS BKN080CB OVC150
     FM030300 36012KT P6SM FEW110 FEW200=



000
FTUS45 KLKN 021120
TAFTPH
TAF
KTPH 021120Z 0212/0312 36010KT P6SM FEW100 OVC150
     FM021300 36008KT P6SM SCT200
     FM021900 18010G20KT P6SM VCTS BKN080CB OVC150
     FM030300 36012KT P6SM FEW110 FEW200=



000
FTUS45 KLKN 021120
TAFWMC
TAF
KWMC 021120Z 0212/0312 17008KT P6SM FEW100 SCT150
     FM021900 05008KT P6SM VCTS SCT100CB BKN250
     FM030400 15008KT P6SM FEW110 BKN250=



000
FTUS45 KLKN 021120
TAFEKO
TAF
KEKO 021120Z 0212/0312 VRB05KT P6SM FEW120 SCT250
     FM021900 09007KT P6SM VCTS SCT100CB SCT250
     FM030300 07006KT P6SM SCT120 SCT250=



000
FTUS45 KLKN 021120
TAFWMC
TAF
KWMC 021120Z 0212/0312 17008KT P6SM FEW100 SCT150
     FM021900 05008KT P6SM VCTS SCT100CB BKN250
     FM030400 15008KT P6SM FEW110 BKN250=



000
FTUS45 KLKN 021120
TAFEKO
TAF
KEKO 021120Z 0212/0312 VRB05KT P6SM FEW120 SCT250
     FM021900 09007KT P6SM VCTS SCT100CB SCT250
     FM030300 07006KT P6SM SCT120 SCT250=



000
FTUS45 KLKN 021120
TAFEKO
TAF
KEKO 021120Z 0212/0312 VRB05KT P6SM FEW120 SCT250
     FM021900 09007KT P6SM VCTS SCT100CB SCT250
     FM030300 07006KT P6SM SCT120 SCT250=



000
FTUS45 KLKN 021120
TAFELY
TAF
KELY 021120Z 0212/0312 18006KT P6SM VCSH SCT120 BKN200
     FM021900 36008KT P6SM VCTS BKN090CB OVC150
     FM030400 18008KT P6SM FEW100 SCT200=



000
FTUS45 KLKN 021120
TAFTPH
TAF
KTPH 021120Z 0212/0312 36010KT P6SM FEW100 OVC150
     FM021300 36008KT P6SM SCT200
     FM021900 18010G20KT P6SM VCTS BKN080CB OVC150
     FM030300 36012KT P6SM FEW110 FEW200=



000
FTUS45 KLKN 021120
TAFTPH
TAF
KTPH 021120Z 0212/0312 36010KT P6SM FEW100 OVC150
     FM021300 36008KT P6SM SCT200
     FM021900 18010G20KT P6SM VCTS BKN080CB OVC150
     FM030300 36012KT P6SM FEW110 FEW200=



000
FTUS45 KLKN 021120
TAFWMC
TAF
KWMC 021120Z 0212/0312 17008KT P6SM FEW100 SCT150
     FM021900 05008KT P6SM VCTS SCT100CB BKN250
     FM030400 15008KT P6SM FEW110 BKN250=



000
FTUS45 KLKN 021120
TAFWMC
TAF
KWMC 021120Z 0212/0312 17008KT P6SM FEW100 SCT150
     FM021900 05008KT P6SM VCTS SCT100CB BKN250
     FM030400 15008KT P6SM FEW110 BKN250=



000
FTUS45 KLKN 021120
TAFELY
TAF
KELY 021120Z 0212/0312 18006KT P6SM VCSH SCT120 BKN200
     FM021900 36008KT P6SM VCTS BKN090CB OVC150
     FM030400 18008KT P6SM FEW100 SCT200=



000
FTUS45 KLKN 021120
TAFELY
TAF
KELY 021120Z 0212/0312 18006KT P6SM VCSH SCT120 BKN200
     FM021900 36008KT P6SM VCTS BKN090CB OVC150
     FM030400 18008KT P6SM FEW100 SCT200=



000
FTUS45 KLKN 021120
TAFELY
TAF
KELY 021120Z 0212/0312 18006KT P6SM VCSH SCT120 BKN200
     FM021900 36008KT P6SM VCTS BKN090CB OVC150
     FM030400 18008KT P6SM FEW100 SCT200=



000
FTUS45 KLKN 020520
TAFEKO
TAF
KEKO 020520Z 0206/0306 06005KT P6SM FEW120 SCT250
     FM021900 09007KT P6SM VCTS SCT110CB SCT250
     FM030300 07006KT P6SM FEW120 BKN200=



000
FTUS45 KLKN 020520
TAFWMC
TAF
KWMC 020520Z 0206/0306 07004KT P6SM FEW100 SCT150
     FM021900 35008KT P6SM VCTS SCT100CB BKN250
     FM030400 15008KT P6SM FEW110 SCT200=



000
FTUS45 KLKN 020520
TAFWMC
TAF
KWMC 020520Z 0206/0306 07004KT P6SM FEW100 SCT150
     FM021900 35008KT P6SM VCTS SCT100CB BKN250
     FM030400 15008KT P6SM FEW110 SCT200=



000
FTUS45 KLKN 020520
TAFELY
TAF
KELY 020520Z 0206/0306 VRB06KT P6SM VCTS SCT100CB BKN150
     FM021200 18008KT P6SM VCSH SCT120 BKN200
     FM022000 36008KT P6SM VCTS BKN090CB OVC150
     FM030400 18008KT P6SM FEW110 SCT200=



000
FTUS45 KLKN 020520
TAFELY
TAF
KELY 020520Z 0206/0306 VRB06KT P6SM VCTS SCT100CB BKN150
     FM021200 18008KT P6SM VCSH SCT120 BKN200
     FM022000 36008KT P6SM VCTS BKN090CB OVC150
     FM030400 18008KT P6SM FEW110 SCT200=



000
FTUS45 KLKN 020520
TAFTPH
TAF
KTPH 020520Z 0206/0306 36015KT P6SM VCSH FEW110 BKN200
     FM020700 36008KT P6SM FEW100 OVC150
     FM022000 18010G20KT P6SM VCTS BKN090CB BKN200
     FM030300 36012KT P6SM FEW110 FEW200=



000
FTUS45 KLKN 020520
TAFTPH
TAF
KTPH 020520Z 0206/0306 36015KT P6SM VCSH FEW110 BKN200
     FM020700 36008KT P6SM FEW100 OVC150
     FM022000 18010G20KT P6SM VCTS BKN090CB BKN200
     FM030300 36012KT P6SM FEW110 FEW200=



000
FTUS45 KLKN 020520
TAFEKO
TAF
KEKO 020520Z 0206/0306 06005KT P6SM FEW120 SCT250
     FM021900 09007KT P6SM VCTS SCT110CB SCT250
     FM030300 07006KT P6SM FEW120 BKN200=



000
FTUS45 KLKN 020035 AAA
TAFWMC
TAF AMD
KWMC 020035Z 0201/0224 29008KT P6SM FEW120
     FM020300 07004KT P6SM FEW150
     FM021900 35008KT P6SM VCTS SCT100CB=



000
FTUS45 KLKN 020035 AAA
TAFWMC
TAF AMD
KWMC 020035Z 0201/0224 29008KT P6SM FEW120
     FM020300 07004KT P6SM FEW150
     FM021900 35008KT P6SM VCTS SCT100CB=



000
FTUS45 KLKN 020035 AAA
TAFWMC
TAF AMD
KWMC 020035Z 0201/0224 29008KT P6SM FEW120
     FM020300 07004KT P6SM FEW150
     FM021900 35008KT P6SM VCTS SCT100CB=



000
FTUS45 KLKN 020035 AAA
TAFWMC
TAF AMD
KWMC 020035Z 0201/0224 29008KT P6SM FEW120
     FM020300 07004KT P6SM FEW150
     FM021900 35008KT P6SM VCTS SCT100CB=



000
FTUS45 KLKN 020034 AAA
TAFEKO
TAF AMD
KEKO 020034Z 0201/0224 35010KT P6SM SCT100
     FM020300 07006KT P6SM SCT120
     FM021900 04007KT P6SM VCTS BKN100CB=



000
FTUS45 KLKN 020034 AAA
TAFEKO
TAF AMD
KEKO 020034Z 0201/0224 35010KT P6SM SCT100
     FM020300 07006KT P6SM SCT120
     FM021900 04007KT P6SM VCTS BKN100CB=



000
FTUS45 KLKN 020034 AAA
TAFEKO
TAF AMD
KEKO 020034Z 0201/0224 35010KT P6SM SCT100
     FM020300 07006KT P6SM SCT120
     FM021900 04007KT P6SM VCTS BKN100CB=



000
FTUS45 KLKN 012322
TAFELY
TAF
KELY 012322Z 0200/0224 36010KT P6SM VCTS BKN090CB
     FM020400 18008KT P6SM VCSH FEW100 BKN200
     FM022000 36008KT P6SM VCTS BKN090CB=



000
FTUS45 KLKN 012322
TAFEKO
TAF
KEKO 012322Z 0200/0224 35010KT P6SM VCTS BKN100CB
     FM020400 07006KT P6SM VCSH FEW100 SCT250
     FM021900 04007KT P6SM VCTS BKN100CB=



000
FTUS45 KLKN 012322
TAFWMC
TAF
KWMC 012322Z 0200/0224 30008KT P6SM VCSH SCT110
     FM020300 07004KT P6SM FEW120 BKN200
     FM021900 35008KT P6SM VCTS SCT100CB=



000
FTUS45 KLKN 012322
TAFTPH
TAF
KTPH 012322Z 0200/0224 32011KT P6SM VCTS SCT110CB
     FM020300 36008KT P6SM VCSH FEW110 BKN250
     FM022000 18008KT P6SM VCTS BKN100CB=



000
FTUS45 KLKN 012322
TAFWMC
TAF
KWMC 012322Z 0200/0224 30008KT P6SM VCSH SCT110
     FM020300 07004KT P6SM FEW120 BKN200
     FM021900 35008KT P6SM VCTS SCT100CB=



000
FTUS45 KLKN 012322
TAFTPH
TAF
KTPH 012322Z 0200/0224 32011KT P6SM VCTS SCT110CB
     FM020300 36008KT P6SM VCSH FEW110 BKN250
     FM022000 18008KT P6SM VCTS BKN100CB=



000
FTUS45 KLKN 012322
TAFEKO
TAF
KEKO 012322Z 0200/0224 35010KT P6SM VCTS BKN100CB
     FM020400 07006KT P6SM VCSH FEW100 SCT250
     FM021900 04007KT P6SM VCTS BKN100CB=



000
FTUS45 KLKN 012322
TAFELY
TAF
KELY 012322Z 0200/0224 36010KT P6SM VCTS BKN090CB
     FM020400 18008KT P6SM VCSH FEW100 BKN200
     FM022000 36008KT P6SM VCTS BKN090CB=



000
FTUS45 KLKN 012322
TAFELY
TAF
KELY 012322Z 0200/0224 36010KT P6SM VCTS BKN090CB
     FM020400 18008KT P6SM VCSH FEW100 BKN200
     FM022000 36008KT P6SM VCTS BKN090CB=



000
FTUS45 KLKN 012322
TAFELY
TAF
KELY 012322Z 0200/0224 36010KT P6SM VCTS BKN090CB
     FM020400 18008KT P6SM VCSH FEW100 BKN200
     FM022000 36008KT P6SM VCTS BKN090CB=



000
FTUS45 KLKN 012322
TAFWMC
TAF
KWMC 012322Z 0200/0224 30008KT P6SM VCSH SCT110
     FM020300 07004KT P6SM FEW120 BKN200
     FM021900 35008KT P6SM VCTS SCT100CB=



000
FTUS45 KLKN 012322
TAFEKO
TAF
KEKO 012322Z 0200/0224 35010KT P6SM VCTS BKN100CB
     FM020400 07006KT P6SM VCSH FEW100 SCT250
     FM021900 04007KT P6SM VCTS BKN100CB=



000
FTUS45 KLKN 012322
TAFEKO
TAF
KEKO 012322Z 0200/0224 35010KT P6SM VCTS BKN100CB
     FM020400 07006KT P6SM VCSH FEW100 SCT250
     FM021900 04007KT P6SM VCTS BKN100CB=



000
FTUS45 KLKN 012322
TAFTPH
TAF
KTPH 012322Z 0200/0224 32011KT P6SM VCTS SCT110CB
     FM020300 36008KT P6SM VCSH FEW110 BKN250
     FM022000 18008KT P6SM VCTS BKN100CB=



000
FTUS45 KLKN 012322
TAFWMC
TAF
KWMC 012322Z 0200/0224 30008KT P6SM VCSH SCT110
     FM020300 07004KT P6SM FEW120 BKN200
     FM021900 35008KT P6SM VCTS SCT100CB=



000
FTUS45 KLKN 012322
TAFTPH
TAF
KTPH 012322Z 0200/0224 32011KT P6SM VCTS SCT110CB
     FM020300 36008KT P6SM VCSH FEW110 BKN250
     FM022000 18008KT P6SM VCTS BKN100CB=



000
FTUS45 KLKN 011720
TAFEKO
TAF
KEKO 011720Z 0118/0218 07005KT P6SM FEW100 BKN150
     FM012000 35010KT P6SM VCTS BKN100CB
     FM020400 07006KT P6SM VCSH FEW100 SCT250=



000
FTUS45 KLKN 011720
TAFTPH
TAF
KTPH 011720Z 0118/0218 36008KT P6SM FEW110 BKN250
     FM011900 32011KT P6SM VCTS SCT110CB
     FM020300 36008KT P6SM VCSH FEW110 BKN250=



000
FTUS45 KLKN 011720
TAFELY
TAF
KELY 011720Z 0118/0218 18008KT P6SM FEW120 SCT160
     FM011900 36010KT P6SM VCTS BKN090CB
     FM020400 18008KT P6SM VCSH FEW100 BKN200=



000
FTUS45 KLKN 011720
TAFWMC
TAF
KWMC 011720Z 0118/0218 07004KT P6SM FEW100 SCT150
     FM011900 30008KT P6SM VCSH SCT110
     FM020300 07004KT P6SM FEW120 BKN200=



000
FTUS45 KLKN 011720
TAFELY
TAF
KELY 011720Z 0118/0218 18008KT P6SM FEW120 SCT160
     FM011900 36010KT P6SM VCTS BKN090CB
     FM020400 18008KT P6SM VCSH FEW100 BKN200=



000
FTUS45 KLKN 011720
TAFEKO
TAF
KEKO 011720Z 0118/0218 07005KT P6SM FEW100 BKN150
     FM012000 35010KT P6SM VCTS BKN100CB
     FM020400 07006KT P6SM VCSH FEW100 SCT250=



000
FTUS45 KLKN 011720
TAFEKO
TAF
KEKO 011720Z 0118/0218 07005KT P6SM FEW100 BKN150
     FM012000 35010KT P6SM VCTS BKN100CB
     FM020400 07006KT P6SM VCSH FEW100 SCT250=



000
FTUS45 KLKN 011720
TAFWMC
TAF
KWMC 011720Z 0118/0218 07004KT P6SM FEW100 SCT150
     FM011900 30008KT P6SM VCSH SCT110
     FM020300 07004KT P6SM FEW120 BKN200=



000
FTUS45 KLKN 011720
TAFTPH
TAF
KTPH 011720Z 0118/0218 36008KT P6SM FEW110 BKN250
     FM011900 32011KT P6SM VCTS SCT110CB
     FM020300 36008KT P6SM VCSH FEW110 BKN250=



000
FTUS45 KLKN 011720
TAFTPH
TAF
KTPH 011720Z 0118/0218 36008KT P6SM FEW110 BKN250
     FM011900 32011KT P6SM VCTS SCT110CB
     FM020300 36008KT P6SM VCSH FEW110 BKN250=



000
FTUS45 KLKN 011720
TAFELY
TAF
KELY 011720Z 0118/0218 18008KT P6SM FEW120 SCT160
     FM011900 36010KT P6SM VCTS BKN090CB
     FM020400 18008KT P6SM VCSH FEW100 BKN200=



000
FTUS45 KLKN 011720
TAFEKO
TAF
KEKO 011720Z 0118/0218 07005KT P6SM FEW100 BKN150
     FM012000 35010KT P6SM VCTS BKN100CB
     FM020400 07006KT P6SM VCSH FEW100 SCT250=



000
FTUS45 KLKN 011720
TAFWMC
TAF
KWMC 011720Z 0118/0218 07004KT P6SM FEW100 SCT150
     FM011900 30008KT P6SM VCSH SCT110
     FM020300 07004KT P6SM FEW120 BKN200=



000
FTUS45 KLKN 011720
TAFWMC
TAF
KWMC 011720Z 0118/0218 07004KT P6SM FEW100 SCT150
     FM011900 30008KT P6SM VCSH SCT110
     FM020300 07004KT P6SM FEW120 BKN200=



000
FTUS45 KLKN 011720
TAFTPH
TAF
KTPH 011720Z 0118/0218 36008KT P6SM FEW110 BKN250
     FM011900 32011KT P6SM VCTS SCT110CB
     FM020300 36008KT P6SM VCSH FEW110 BKN250=



000
FTUS45 KLKN 011720
TAFELY
TAF
KELY 011720Z 0118/0218 18008KT P6SM FEW120 SCT160
     FM011900 36010KT P6SM VCTS BKN090CB
     FM020400 18008KT P6SM VCSH FEW100 BKN200=



000
FTUS45 KLKN 011120
TAFTPH
TAF
KTPH 011120Z 0112/0212 36008KT P6SM FEW110 BKN250
     FM011900 32012G25KT P6SM VCTS SCT110CB
     FM020300 36008KT P6SM VCSH FEW110 BKN250=



000
FTUS45 KLKN 011120
TAFEKO
TAF
KEKO 011120Z 0112/0212 07005KT P6SM FEW100 SCT200
     FM011900 35010G20KT P6SM VCTS BKN100CB
     FM020400 07006KT P6SM VCSH FEW100 FEW250=



000
FTUS45 KLKN 011120
TAFELY
TAF
KELY 011120Z 0112/0212 18008KT P6SM FEW120
     FM011900 36010KT P6SM VCTS BKN090CB
     FM020400 18008KT P6SM VCSH FEW100 BKN200=



000
FTUS45 KLKN 011120
TAFWMC
TAF
KWMC 011120Z 0112/0212 07004KT P6SM FEW100 FEW150
     FM011900 30008KT P6SM VCSH SCT110
     FM020300 07004KT P6SM FEW120 BKN200=



000
FTUS45 KLKN 011120
TAFTPH
TAF
KTPH 011120Z 0112/0212 36008KT P6SM FEW110 BKN250
     FM011900 32012G25KT P6SM VCTS SCT110CB
     FM020300 36008KT P6SM VCSH FEW110 BKN250=



000
FTUS45 KLKN 011120
TAFWMC
TAF
KWMC 011120Z 0112/0212 07004KT P6SM FEW100 FEW150
     FM011900 30008KT P6SM VCSH SCT110
     FM020300 07004KT P6SM FEW120 BKN200=



000
FTUS45 KLKN 011120
TAFELY
TAF
KELY 011120Z 0112/0212 18008KT P6SM FEW120
     FM011900 36010KT P6SM VCTS BKN090CB
     FM020400 18008KT P6SM VCSH FEW100 BKN200=



000
FTUS45 KLKN 011120
TAFWMC
TAF
KWMC 011120Z 0112/0212 07004KT P6SM FEW100 FEW150
     FM011900 30008KT P6SM VCSH SCT110
     FM020300 07004KT P6SM FEW120 BKN200=



000
FTUS45 KLKN 011120
TAFEKO
TAF
KEKO 011120Z 0112/0212 07005KT P6SM FEW100 SCT200
     FM011900 35010G20KT P6SM VCTS BKN100CB
     FM020400 07006KT P6SM VCSH FEW100 FEW250=



000
FTUS45 KLKN 011120
TAFWMC
TAF
KWMC 011120Z 0112/0212 07004KT P6SM FEW100 FEW150
     FM011900 30008KT P6SM VCSH SCT110
     FM020300 07004KT P6SM FEW120 BKN200=



000
FTUS45 KLKN 011120
TAFEKO
TAF
KEKO 011120Z 0112/0212 07005KT P6SM FEW100 SCT200
     FM011900 35010G20KT P6SM VCTS BKN100CB
     FM020400 07006KT P6SM VCSH FEW100 FEW250=



000
FTUS45 KLKN 011120
TAFELY
TAF
KELY 011120Z 0112/0212 18008KT P6SM FEW120
     FM011900 36010KT P6SM VCTS BKN090CB
     FM020400 18008KT P6SM VCSH FEW100 BKN200=



000
FTUS45 KLKN 011120
TAFEKO
TAF
KEKO 011120Z 0112/0212 07005KT P6SM FEW100 SCT200
     FM011900 35010G20KT P6SM VCTS BKN100CB
     FM020400 07006KT P6SM VCSH FEW100 FEW250=



000
FTUS45 KLKN 011120
TAFELY
TAF
KELY 011120Z 0112/0212 18008KT P6SM FEW120
     FM011900 36010KT P6SM VCTS BKN090CB
     FM020400 18008KT P6SM VCSH FEW100 BKN200=



000
FTUS45 KLKN 011120
TAFTPH
TAF
KTPH 011120Z 0112/0212 36008KT P6SM FEW110 BKN250
     FM011900 32012G25KT P6SM VCTS SCT110CB
     FM020300 36008KT P6SM VCSH FEW110 BKN250=



000
FTUS45 KLKN 010758 AAA
TAFELY
TAF AMD
KELY 010758Z 0108/0206 VRB06KT P6SM VCSH BKN120
      TEMPO 0108/0110 -TSRA BKN080CB
     FM011000 18008KT P6SM FEW120
     FM011900 36010KT P6SM VCTS BKN090CB
     FM020400 18008KT P6SM VCSH FEW070 BKN150=



000
FTUS45 KLKN 010758 AAA
TAFELY
TAF AMD
KELY 010758Z 0108/0206 VRB06KT P6SM VCSH BKN120
      TEMPO 0108/0110 -TSRA BKN080CB
     FM011000 18008KT P6SM FEW120
     FM011900 36010KT P6SM VCTS BKN090CB
     FM020400 18008KT P6SM VCSH FEW070 BKN150=



000
FTUS45 KLKN 010520
TAFELY
TAF
KELY 010520Z 0106/0206 VRB06KT P6SM VCSH BKN120
     FM011000 18008KT P6SM FEW120
     FM011900 36010KT P6SM VCTS BKN090CB
     FM020400 18008KT P6SM VCSH FEW070 BKN150=



000
FTUS45 KLKN 010520
TAFWMC
TAF
KWMC 010520Z 0106/0206 07004KT P6SM FEW100 FEW150
     FM011900 29006KT P6SM VCSH SCT110
     FM020300 33010G20KT P6SM FEW120=



000
FTUS45 KLKN 010520
TAFEKO
TAF
KEKO 010520Z 0106/0206 07006KT P6SM VCSH FEW080 SCT200
     FM011000 07005KT P6SM FEW100 FEW200
     FM011900 33012G22KT P6SM VCTS BKN090CB
     FM020400 07006KT P6SM VCSH FEW100 FEW250=



000
FTUS45 KLKN 010520
TAFELY
TAF
KELY 010520Z 0106/0206 VRB06KT P6SM VCSH BKN120
     FM011000 18008KT P6SM FEW120
     FM011900 36010KT P6SM VCTS BKN090CB
     FM020400 18008KT P6SM VCSH FEW070 BKN150=



000
FTUS45 KLKN 010520
TAFTPH
TAF
KTPH 010520Z 0106/0206 36009KT P6SM VCSH SCT110
     FM011000 36008KT P6SM FEW110 BKN250
     FM011900 32012G25KT P6SM VCTS SCT100CB
     FM020300 36008KT P6SM FEW110 BKN200=



000
FTUS45 KLKN 010520
TAFEKO
TAF
KEKO 010520Z 0106/0206 07006KT P6SM VCSH FEW080 SCT200
     FM011000 07005KT P6SM FEW100 FEW200
     FM011900 33012G22KT P6SM VCTS BKN090CB
     FM020400 07006KT P6SM VCSH FEW100 FEW250=



000
FTUS45 KLKN 010520
TAFTPH
TAF
KTPH 010520Z 0106/0206 36009KT P6SM VCSH SCT110
     FM011000 36008KT P6SM FEW110 BKN250
     FM011900 32012G25KT P6SM VCTS SCT100CB
     FM020300 36008KT P6SM FEW110 BKN200=



000
FTUS45 KLKN 010520
TAFEKO
TAF
KEKO 010520Z 0106/0206 07006KT P6SM VCSH FEW080 SCT200
     FM011000 07005KT P6SM FEW100 FEW200
     FM011900 33012G22KT P6SM VCTS BKN090CB
     FM020400 07006KT P6SM VCSH FEW100 FEW250=



000
FTUS45 KLKN 010520
TAFEKO
TAF
KEKO 010520Z 0106/0206 07006KT P6SM VCSH FEW080 SCT200
     FM011000 07005KT P6SM FEW100 FEW200
     FM011900 33012G22KT P6SM VCTS BKN090CB
     FM020400 07006KT P6SM VCSH FEW100 FEW250=



000
FTUS45 KLKN 010520
TAFTPH
TAF
KTPH 010520Z 0106/0206 36009KT P6SM VCSH SCT110
     FM011000 36008KT P6SM FEW110 BKN250
     FM011900 32012G25KT P6SM VCTS SCT100CB
     FM020300 36008KT P6SM FEW110 BKN200=



000
FTUS45 KLKN 010520
TAFWMC
TAF
KWMC 010520Z 0106/0206 07004KT P6SM FEW100 FEW150
     FM011900 29006KT P6SM VCSH SCT110
     FM020300 33010G20KT P6SM FEW120=



000
FTUS45 KLKN 010520
TAFELY
TAF
KELY 010520Z 0106/0206 VRB06KT P6SM VCSH BKN120
     FM011000 18008KT P6SM FEW120
     FM011900 36010KT P6SM VCTS BKN090CB
     FM020400 18008KT P6SM VCSH FEW070 BKN150=



000
FTUS45 KLKN 010520
TAFTPH
TAF
KTPH 010520Z 0106/0206 36009KT P6SM VCSH SCT110
     FM011000 36008KT P6SM FEW110 BKN250
     FM011900 32012G25KT P6SM VCTS SCT100CB
     FM020300 36008KT P6SM FEW110 BKN200=



000
FTUS45 KLKN 010520
TAFWMC
TAF
KWMC 010520Z 0106/0206 07004KT P6SM FEW100 FEW150
     FM011900 29006KT P6SM VCSH SCT110
     FM020300 33010G20KT P6SM FEW120=



000
FTUS45 KLKN 010520
TAFELY
TAF
KELY 010520Z 0106/0206 VRB06KT P6SM VCSH BKN120
     FM011000 18008KT P6SM FEW120
     FM011900 36010KT P6SM VCTS BKN090CB
     FM020400 18008KT P6SM VCSH FEW070 BKN150=



000
FTUS45 KLKN 010520
TAFWMC
TAF
KWMC 010520Z 0106/0206 07004KT P6SM FEW100 FEW150
     FM011900 29006KT P6SM VCSH SCT110
     FM020300 33010G20KT P6SM FEW120=



000
FTUS45 KLKN 010213 AAA
TAFTPH
TAF AMD
KTPH 010213Z 0102/0124 22010G20KT P6SM VCTS BKN100CB
      TEMPO 0102/0104 VRB15G30KT 3SM TSRA BKN070CB
     FM010500 35007KT P6SM BKN120
     FM011900 33008KT P6SM VCTS SCT100CB=



000
FTUS45 KLKN 010213 AAA
TAFTPH
TAF AMD
KTPH 010213Z 0102/0124 22010G20KT P6SM VCTS BKN100CB
      TEMPO 0102/0104 VRB15G30KT 3SM TSRA BKN070CB
     FM010500 35007KT P6SM BKN120
     FM011900 33008KT P6SM VCTS SCT100CB=



000
FTUS45 KLKN 302320
TAFELY
TAF
KELY 302320Z 0100/0124 27008KT P6SM VCTS SCT100CB
     FM010400 18008KT P6SM BKN120
     FM011900 36009KT P6SM VCTS BKN090CB=



000
FTUS45 KLKN 302320
TAFWMC
TAF
KWMC 302320Z 0100/0124 30007KT P6SM SCT100
     FM010400 VRB03KT P6SM SCT120
     FM011900 29006KT P6SM SCT100=



000
FTUS45 KLKN 302320
TAFTPH
TAF
KTPH 302320Z 0100/0124 22010G20KT P6SM VCTS SCT100CB
     FM010500 35007KT P6SM BKN120
     FM011900 33008KT P6SM VCTS SCT100CB=



000
FTUS45 KLKN 302320
TAFEKO
TAF
KEKO 302320Z 0100/0124 25010KT P6SM VCTS SCT100CB
     FM010400 VRB06KT P6SM SCT120
     FM011900 35008KT P6SM VCTS SCT100CB=



000
FTUS45 KLKN 302320
TAFTPH
TAF
KTPH 302320Z 0100/0124 22010G20KT P6SM VCTS SCT100CB
     FM010500 35007KT P6SM BKN120
     FM011900 33008KT P6SM VCTS SCT100CB=



000
FTUS45 KLKN 302320
TAFELY
TAF
KELY 302320Z 0100/0124 27008KT P6SM VCTS SCT100CB
     FM010400 18008KT P6SM BKN120
     FM011900 36009KT P6SM VCTS BKN090CB=



000
FTUS45 KLKN 302320
TAFEKO
TAF
KEKO 302320Z 0100/0124 25010KT P6SM VCTS SCT100CB
     FM010400 VRB06KT P6SM SCT120
     FM011900 35008KT P6SM VCTS SCT100CB=



000
FTUS45 KLKN 302320
TAFWMC
TAF
KWMC 302320Z 0100/0124 30007KT P6SM SCT100
     FM010400 VRB03KT P6SM SCT120
     FM011900 29006KT P6SM SCT100=



000
FTUS45 KLKN 301720
TAFEKO
TAF
KEKO 301720Z 3018/0118 VRB04KT P6SM BKN120
     FM302000 25010KT P6SM VCTS SCT100CB
     FM010300 VRB06KT P6SM SCT120=



000
FTUS45 KLKN 301720
TAFELY
TAF
KELY 301720Z 3018/0118 21010KT P6SM BKN110
     FM302000 27008KT P6SM VCTS SCT100CB
     FM010400 18008KT P6SM BKN120=



000
FTUS45 KLKN 301720
TAFEKO
TAF
KEKO 301720Z 3018/0118 VRB04KT P6SM BKN120
     FM302000 25010KT P6SM VCTS SCT100CB
     FM010300 VRB06KT P6SM SCT120=



000
FTUS45 KLKN 301720
TAFTPH
TAF
KTPH 301720Z 3018/0118 35007KT P6SM SCT120
     FM302000 22010G20KT P6SM VCTS SCT100CB
     FM010500 35007KT P6SM BKN120=



000
FTUS45 KLKN 301720
TAFELY
TAF
KELY 301720Z 3018/0118 21010KT P6SM BKN110
     FM302000 27008KT P6SM VCTS SCT100CB
     FM010400 18008KT P6SM BKN120=



000
FTUS45 KLKN 301720
TAFEKO
TAF
KEKO 301720Z 3018/0118 VRB04KT P6SM BKN120
     FM302000 25010KT P6SM VCTS SCT100CB
     FM010300 VRB06KT P6SM SCT120=



000
FTUS45 KLKN 301720
TAFTPH
TAF
KTPH 301720Z 3018/0118 35007KT P6SM SCT120
     FM302000 22010G20KT P6SM VCTS SCT100CB
     FM010500 35007KT P6SM BKN120=



000
FTUS45 KLKN 301720
TAFWMC
TAF
KWMC 301720Z 3018/0118 VRB03KT P6SM BKN130
     FM302100 30007KT P6SM VCTS SCT100CB
     FM010400 VRB03KT P6SM SCT120=



000
FTUS45 KLKN 301720
TAFWMC
TAF
KWMC 301720Z 3018/0118 VRB03KT P6SM BKN130
     FM302100 30007KT P6SM VCTS SCT100CB
     FM010400 VRB03KT P6SM SCT120=



000
FTUS45 KLKN 301720
TAFTPH
TAF
KTPH 301720Z 3018/0118 35007KT P6SM SCT120
     FM302000 22010G20KT P6SM VCTS SCT100CB
     FM010500 35007KT P6SM BKN120=



000
FTUS45 KLKN 301720
TAFELY
TAF
KELY 301720Z 3018/0118 21010KT P6SM BKN110
     FM302000 27008KT P6SM VCTS SCT100CB
     FM010400 18008KT P6SM BKN120=



000
FTUS45 KLKN 301720
TAFELY
TAF
KELY 301720Z 3018/0118 21010KT P6SM BKN110
     FM302000 27008KT P6SM VCTS SCT100CB
     FM010400 18008KT P6SM BKN120=



000
FTUS45 KLKN 301720
TAFWMC
TAF
KWMC 301720Z 3018/0118 VRB03KT P6SM BKN130
     FM302100 30007KT P6SM VCTS SCT100CB
     FM010400 VRB03KT P6SM SCT120=



000
FTUS45 KLKN 301720
TAFTPH
TAF
KTPH 301720Z 3018/0118 35007KT P6SM SCT120
     FM302000 22010G20KT P6SM VCTS SCT100CB
     FM010500 35007KT P6SM BKN120=



000
FTUS45 KLKN 301120
TAFTPH
TAF
KTPH 301120Z 3012/0112 35007KT P6SM SCT120
     FM302000 22010G20KT P6SM VCTS SCT100CB
     FM010500 35007KT P6SM BKN120=



000
FTUS45 KLKN 301120
TAFEKO
TAF
KEKO 301120Z 3012/0112 VRB04KT P6SM BKN120
     FM302000 25010KT P6SM VCTS SCT100CB
     FM010300 VRB06KT P6SM SCT120=



000
FTUS45 KLKN 301120
TAFEKO
TAF
KEKO 301120Z 3012/0112 VRB04KT P6SM BKN120
     FM302000 25010KT P6SM VCTS SCT100CB
     FM010300 VRB06KT P6SM SCT120=



000
FTUS45 KLKN 301120
TAFWMC
TAF
KWMC 301120Z 3012/0112 VRB03KT P6SM BKN130
     FM302100 30007KT P6SM VCTS SCT100CB
     FM010400 VRB03KT P6SM SCT120=



000
FTUS45 KLKN 301120
TAFTPH
TAF
KTPH 301120Z 3012/0112 35007KT P6SM SCT120
     FM302000 22010G20KT P6SM VCTS SCT100CB
     FM010500 35007KT P6SM BKN120=



000
FTUS45 KLKN 301120
TAFELY
TAF
KELY 301120Z 3012/0112 21010KT P6SM BKN110
     FM302000 27008KT P6SM VCTS SCT100CB
     FM010400 18008KT P6SM BKN120=



000
FTUS45 KLKN 301120
TAFEKO
TAF
KEKO 301120Z 3012/0112 VRB04KT P6SM BKN120
     FM302000 25010KT P6SM VCTS SCT100CB
     FM010300 VRB06KT P6SM SCT120=



000
FTUS45 KLKN 301120
TAFELY
TAF
KELY 301120Z 3012/0112 21010KT P6SM BKN110
     FM302000 27008KT P6SM VCTS SCT100CB
     FM010400 18008KT P6SM BKN120=



000
FTUS45 KLKN 301120
TAFWMC
TAF
KWMC 301120Z 3012/0112 VRB03KT P6SM BKN130
     FM302100 30007KT P6SM VCTS SCT100CB
     FM010400 VRB03KT P6SM SCT120=



000
FTUS45 KLKN 301120
TAFELY
TAF
KELY 301120Z 3012/0112 21010KT P6SM BKN110
     FM302000 27008KT P6SM VCTS SCT100CB
     FM010400 18008KT P6SM BKN120=



000
FTUS45 KLKN 301120
TAFTPH
TAF
KTPH 301120Z 3012/0112 35007KT P6SM SCT120
     FM302000 22010G20KT P6SM VCTS SCT100CB
     FM010500 35007KT P6SM BKN120=



000
FTUS45 KLKN 301120
TAFWMC
TAF
KWMC 301120Z 3012/0112 VRB03KT P6SM BKN130
     FM302100 30007KT P6SM VCTS SCT100CB
     FM010400 VRB03KT P6SM SCT120=



000
FTUS45 KLKN 301120
TAFTPH
TAF
KTPH 301120Z 3012/0112 35007KT P6SM SCT120
     FM302000 22010G20KT P6SM VCTS SCT100CB
     FM010500 35007KT P6SM BKN120=



000
FTUS45 KLKN 301120
TAFWMC
TAF
KWMC 301120Z 3012/0112 VRB03KT P6SM BKN130
     FM302100 30007KT P6SM VCTS SCT100CB
     FM010400 VRB03KT P6SM SCT120=



000
FTUS45 KLKN 301120
TAFEKO
TAF
KEKO 301120Z 3012/0112 VRB04KT P6SM BKN120
     FM302000 25010KT P6SM VCTS SCT100CB
     FM010300 VRB06KT P6SM SCT120=



000
FTUS45 KLKN 301120
TAFELY
TAF
KELY 301120Z 3012/0112 21010KT P6SM BKN110
     FM302000 27008KT P6SM VCTS SCT100CB
     FM010400 18008KT P6SM BKN120=



000
FTUS45 KLKN 300520
TAFELY
TAF
KELY 300520Z 3006/0106 19006KT P6SM BKN130
     FM302000 VRB06KT P6SM VCTS SCT100CB=



000
FTUS45 KLKN 300520
TAFTPH
TAF
KTPH 300520Z 3006/0106 36006KT P6SM SCT130
     FM302000 19010G18KT P6SM VCTS SCT100CB=



000
FTUS45 KLKN 300520
TAFEKO
TAF
KEKO 300520Z 3006/0106 VRB05KT P6SM BKN120
     FM302000 25008KT P6SM VCTS SCT100CB=



000
FTUS45 KLKN 300520
TAFELY
TAF
KELY 300520Z 3006/0106 19006KT P6SM BKN130
     FM302000 VRB06KT P6SM VCTS SCT100CB=



000
FTUS45 KLKN 300520
TAFWMC
TAF
KWMC 300520Z 3006/0106 VRB05KT P6SM BKN130
     FM302100 30007KT P6SM VCTS SCT120CB=



000
FTUS45 KLKN 300520
TAFTPH
TAF
KTPH 300520Z 3006/0106 36006KT P6SM SCT130
     FM302000 19010G18KT P6SM VCTS SCT100CB=



000
FTUS45 KLKN 300520
TAFWMC
TAF
KWMC 300520Z 3006/0106 VRB05KT P6SM BKN130
     FM302100 30007KT P6SM VCTS SCT120CB=



000
FTUS45 KLKN 300520
TAFEKO
TAF
KEKO 300520Z 3006/0106 VRB05KT P6SM BKN120
     FM302000 25008KT P6SM VCTS SCT100CB=



000
FTUS45 KLKN 292331
TAFTPH
TAF
KTPH 292331Z 3000/3024 20012G20KT P6SM SCT120
     FM300400 36007KT P6SM SCT130
     FM302000 19010G18KT P6SM VCTS SCT100CB=



000
FTUS45 KLKN 292331
TAFELY
TAF
KELY 292331Z 3000/3024 VRB06KT P6SM VCTS SCT120CB
     FM300400 19006KT P6SM BKN130
     FM302000 VRB06KT P6SM VCTS SCT100CB=



000
FTUS45 KLKN 292331
TAFTPH
TAF
KTPH 292331Z 3000/3024 20012G20KT P6SM SCT120
     FM300400 36007KT P6SM SCT130
     FM302000 19010G18KT P6SM VCTS SCT100CB=



000
FTUS45 KLKN 292331
TAFWMC
TAF
KWMC 292331Z 3000/3024 27007KT P6SM VCTS SCT120CB
     FM300300 VRB05KT P6SM BKN150
     FM302100 30007KT P6SM VCTS SCT120CB=



000
FTUS45 KLKN 292331
TAFEKO
TAF
KEKO 292331Z 3000/3024 25008KT P6SM VCTS SCT120CB
     FM300400 VRB04KT P6SM BKN140
     FM302000 25008KT P6SM VCTS SCT100CB=



000
FTUS45 KLKN 292331
TAFWMC
TAF
KWMC 292331Z 3000/3024 27007KT P6SM VCTS SCT120CB
     FM300300 VRB05KT P6SM BKN150
     FM302100 30007KT P6SM VCTS SCT120CB=



000
FTUS45 KLKN 292331
TAFEKO
TAF
KEKO 292331Z 3000/3024 25008KT P6SM VCTS SCT120CB
     FM300400 VRB04KT P6SM BKN140
     FM302000 25008KT P6SM VCTS SCT100CB=



    US Dept of Commerce
    National Oceanic and Atmospheric Administration
    National Weather Service
    1325 East West Highway
    Silver Spring, MD 20910
    Page Author: NWS Internet Services Team
Disclaimer
Information Quality
Credits
Glossary
Privacy Policy
Freedom of Information Act (FOIA)
About Us
Career Opportunities